createdAt,value
2023-04-15T00:00:13.762Z,10.18
2023-04-15T00:03:19.301Z,12.10
2023-04-15T00:06:24.813Z,10.90
2023-04-15T00:09:29.661Z,11.05
2023-04-15T00:12:34.058Z,11.93
2023-04-15T00:15:38.337Z,10.88
2023-04-15T00:18:42.888Z,13.75
2023-04-15T00:21:47.309Z,12.60
2023-04-15T00:24:54.161Z,13.90
2023-04-15T00:27:58.307Z,14.70
2023-04-15T00:31:03.093Z,13.63
2023-04-15T00:34:08.238Z,14.82
2023-04-15T00:37:12.777Z,13.13
2023-04-15T00:40:19.748Z,17.00
2023-04-15T00:43:24.350Z,13.07
2023-04-15T00:49:35.338Z,17.83
2023-04-15T00:52:40.680Z,15.88
2023-04-15T00:55:45.588Z,17.63
2023-04-15T00:58:51.404Z,18.35
2023-04-15T01:01:56.483Z,23.38
2023-04-15T01:05:01.368Z,19.23
2023-04-15T01:08:06.295Z,21.08
2023-04-15T01:11:12.603Z,17.75
2023-04-15T01:14:16.653Z,18.73
2023-04-15T01:17:21.503Z,22.60
2023-04-15T01:20:26.194Z,22.20
2023-04-15T01:23:31.330Z,19.38
2023-04-15T01:26:37.890Z,22.80
2023-04-15T01:29:43.122Z,22.95
2023-04-15T01:32:47.482Z,22.65
2023-04-15T01:35:51.634Z,27.20
2023-04-15T01:38:57.327Z,24.73
2023-04-15T01:42:01.806Z,26.08
2023-04-15T01:45:07.180Z,28.92
2023-04-15T01:48:12.338Z,26.92
2023-04-15T01:51:17.220Z,28.35
2023-04-15T01:54:21.837Z,31.77
2023-04-15T01:57:26.387Z,32.42
2023-04-15T02:00:32.561Z,31.60
2023-04-15T02:03:38.913Z,31.25
2023-04-15T02:06:43.972Z,33.72
2023-04-15T02:09:48.180Z,33.25
2023-04-15T02:12:52.439Z,31.60
2023-04-15T02:19:02.178Z,28.88
2023-04-15T02:22:07.728Z,27.10
2023-04-15T02:25:12.166Z,32.90
2023-04-15T02:28:16.540Z,30.90
2023-04-15T02:34:27.318Z,26.65
2023-04-15T02:37:32.542Z,32.22
2023-04-15T02:40:37.351Z,33.03
2023-04-15T02:43:41.859Z,26.17
2023-04-15T02:46:52.448Z,32.20
2023-04-15T02:49:58.591Z,29.33
2023-04-15T02:53:03.179Z,28.77
2023-04-15T02:56:08.390Z,25.77
2023-04-15T02:59:13.338Z,23.52
2023-04-15T03:02:17.777Z,27.58
2023-04-15T03:05:25.727Z,27.08
2023-04-15T03:08:30.045Z,29.05
2023-04-15T03:11:36.853Z,25.83
2023-04-15T03:14:41.137Z,25.95
2023-04-15T03:17:45.541Z,26.40
2023-04-15T03:23:53.789Z,23.38
2023-04-15T03:26:58.324Z,28.33
2023-04-15T03:30:03.261Z,30.10
2023-04-15T03:33:08.579Z,30.15
2023-04-15T03:36:12.647Z,29.30
2023-04-15T03:42:21.812Z,31.73
2023-04-15T03:45:26.299Z,31.63
2023-04-15T03:48:31.073Z,31.27
2023-04-15T03:51:35.765Z,36.58
2023-04-15T03:54:40.248Z,37.97
2023-04-15T04:03:53.423Z,36.25
2023-04-15T04:06:57.914Z,41.13
2023-04-15T04:10:03.745Z,42.15
2023-04-15T04:13:08.114Z,39.17
2023-04-15T04:16:12.550Z,41.42
2023-04-15T04:19:19.570Z,43.28
2023-04-15T04:22:24.745Z,43.67
2023-04-15T04:25:29.148Z,42.72
2023-04-15T04:28:35.190Z,43.58
2023-04-15T04:31:39.569Z,42.20
2023-04-15T04:34:43.637Z,41.90
2023-04-15T04:37:48.113Z,41.60
2023-04-15T04:40:52.613Z,41.47
2023-04-15T04:43:56.786Z,44.72
2023-04-15T04:47:01.246Z,47.80
2023-04-15T04:50:06.852Z,42.97
2023-04-15T04:53:11.072Z,46.53
2023-04-15T04:56:15.558Z,48.67
2023-04-15T04:59:19.929Z,49.03
2023-04-15T05:02:27.095Z,57.08
2023-04-15T05:05:31.968Z,57.97
2023-04-15T05:08:36.704Z,54.72
2023-04-15T05:11:41.934Z,55.10
2023-04-15T05:14:46.859Z,61.45
2023-04-15T05:17:51.659Z,66.70
2023-04-15T05:20:56.121Z,69.25
2023-04-15T05:27:04.771Z,63.53
2023-04-15T05:30:10.272Z,64.93
2023-04-15T05:33:16.463Z,74.68
2023-04-15T05:36:21.188Z,76.53
2023-04-15T05:39:26.588Z,75.78
2023-04-15T05:42:30.968Z,74.22
2023-04-15T05:45:35.197Z,82.32
2023-04-15T05:48:39.510Z,74.43
2023-04-15T05:51:43.676Z,92.43
2023-04-15T05:54:47.892Z,80.22
2023-04-15T06:00:56.856Z,82.18
2023-04-15T06:04:01.948Z,86.93
2023-04-15T06:07:06.845Z,85.93
2023-04-15T06:10:11.778Z,84.88
2023-04-15T06:13:17.062Z,77.38
2023-04-15T06:16:21.940Z,77.35
2023-04-15T06:19:26.937Z,87.32
2023-04-15T06:22:31.659Z,86.78
2023-04-15T06:25:36.108Z,77.60
2023-04-15T06:28:40.734Z,81.35
2023-04-15T06:31:45.152Z,81.10
2023-04-15T06:34:49.374Z,77.88
2023-04-15T06:37:53.616Z,81.63
2023-04-15T06:40:57.989Z,81.75
2023-04-15T06:44:02.776Z,77.55
2023-04-15T06:47:07.021Z,79.32
2023-04-15T06:53:16.137Z,75.68
2023-04-15T06:56:20.525Z,99.47
2023-04-15T06:59:25.204Z,88.75
2023-04-15T07:02:29.780Z,82.55
2023-04-15T07:05:34.145Z,86.70
2023-04-15T07:08:39.135Z,87.95
2023-04-15T07:11:43.580Z,93.78
2023-04-15T07:14:47.863Z,96.80
2023-04-15T07:17:52.527Z,93.82
2023-04-15T07:20:56.760Z,92.32
2023-04-15T07:24:01.327Z,100.15
2023-04-15T07:27:05.711Z,95.82
2023-04-15T07:30:11.350Z,86.15
2023-04-15T07:33:15.836Z,98.38
2023-04-15T07:36:20.771Z,102.32
2023-04-15T07:39:24.933Z,114.43
2023-04-15T07:42:29.369Z,111.80
2023-04-15T07:45:33.478Z,103.22
2023-04-15T07:48:37.872Z,117.28
2023-04-15T07:51:42.302Z,126.78
2023-04-15T07:57:51.110Z,127.57
2023-04-15T08:00:55.515Z,122.07
2023-04-15T08:04:00.516Z,125.88
2023-04-15T08:07:06.070Z,120.95
2023-04-15T08:10:11.208Z,112.35
2023-04-15T08:13:16.075Z,120.28
2023-04-15T08:16:22.869Z,122.10
2023-04-15T08:19:27.194Z,118.90
2023-04-15T08:22:31.528Z,125.07
2023-04-15T08:25:36.177Z,116.32
2023-04-15T08:28:42.449Z,119.25
2023-04-15T08:31:47.787Z,116.53
2023-04-15T08:34:54.508Z,113.22
2023-04-15T08:37:58.764Z,113.47
2023-04-15T08:41:25.543Z,118.35
2023-04-15T08:44:33.363Z,113.53
2023-04-15T08:47:41.796Z,118.13
2023-04-15T08:50:47.918Z,113.72
2023-04-15T08:53:52.937Z,115.90
2023-04-15T08:56:58.701Z,115.18
2023-04-15T09:00:05.722Z,104.45
2023-04-15T09:03:11.112Z,103.68
2023-04-15T09:06:18.094Z,108.05
2023-04-15T09:09:22.723Z,114.40
2023-04-15T09:12:27.307Z,104.38
2023-04-15T09:15:33.016Z,109.25
2023-04-15T09:18:39.130Z,110.38
2023-04-15T09:21:47.134Z,112.82
2023-04-15T09:24:51.656Z,106.00
2023-04-15T09:28:01.104Z,112.32
2023-04-15T09:31:05.633Z,103.30
2023-04-15T09:34:10.765Z,106.60
2023-04-15T09:37:31.618Z,113.30
2023-04-15T09:40:39.751Z,103.05
2023-04-15T09:43:43.870Z,101.53
2023-04-15T09:50:00.310Z,99.25
2023-04-15T09:53:04.784Z,97.95
2023-04-15T09:56:10.440Z,89.70
2023-04-15T09:59:14.723Z,99.55
2023-04-15T10:02:22.900Z,92.85
2023-04-15T10:05:29.753Z,82.07
2023-04-15T10:08:35.353Z,77.78
2023-04-15T10:11:40.536Z,84.15
2023-04-15T10:14:49.288Z,87.82
2023-04-15T10:17:54.928Z,73.90
2023-04-15T10:21:01.964Z,76.72
2023-04-15T10:24:07.115Z,71.30
2023-04-15T10:27:11.730Z,67.50
2023-04-15T10:30:17.537Z,68.72
2023-04-15T10:33:24.530Z,60.35
2023-04-15T10:36:28.586Z,62.47
2023-04-15T10:39:40.205Z,63.35
2023-04-15T10:42:44.443Z,68.60
2023-04-15T10:45:48.754Z,61.10
2023-04-15T10:48:54.080Z,56.78
2023-04-15T10:51:59.762Z,52.42
2023-04-15T10:55:24.985Z,51.83
2023-04-15T10:58:43.086Z,46.65
2023-04-15T11:01:56.700Z,45.05
2023-04-15T11:05:01.851Z,43.33
2023-04-15T11:08:06.682Z,43.63
2023-04-15T11:11:11.323Z,43.60
2023-04-15T11:14:16.419Z,46.30
2023-04-15T11:17:31.389Z,40.65
2023-04-15T11:20:41.461Z,39.33
2023-04-15T11:23:49.273Z,37.08
2023-04-15T11:27:02.318Z,35.55
2023-04-15T11:30:27.396Z,38.25
2023-04-15T11:33:31.476Z,33.83
2023-04-15T11:36:36.872Z,29.92
2023-04-15T11:39:42.252Z,29.75
2023-04-15T11:43:11.433Z,27.13
2023-04-15T11:46:15.960Z,28.73
2023-04-15T11:49:31.323Z,27.33
2023-04-15T11:52:35.507Z,28.80
2023-04-15T11:55:45.114Z,26.38
2023-04-15T11:58:54.164Z,24.02
2023-04-15T12:01:58.841Z,24.95
2023-04-15T12:05:05.487Z,22.65
2023-04-15T12:08:09.368Z,24.52
2023-04-15T12:11:14.541Z,23.25
2023-04-15T12:14:24.738Z,24.95
2023-04-15T12:17:29.303Z,20.08
2023-04-15T12:20:54.556Z,22.92
2023-04-15T12:24:04.886Z,20.45
2023-04-15T12:27:12.170Z,22.23
2023-04-15T12:30:16.314Z,25.33
2023-04-15T12:36:25.158Z,22.85
2023-04-15T12:39:34.846Z,24.05
2023-04-15T12:42:39.215Z,24.60
2023-04-15T12:45:44.053Z,22.70
2023-04-15T12:48:48.349Z,18.98
2023-04-15T12:52:02.782Z,23.58
2023-04-15T12:55:07.719Z,21.23
2023-04-15T12:58:12.172Z,17.75
2023-04-15T13:01:16.564Z,16.95
2023-04-15T13:07:26.052Z,20.58
2023-04-15T13:10:31.589Z,22.52
2023-04-15T13:13:35.891Z,23.13
2023-04-15T13:16:40.902Z,25.65
2023-04-15T13:19:45.490Z,26.42
2023-04-15T13:22:49.998Z,27.77
2023-04-15T13:25:54.291Z,25.35
2023-04-15T13:28:58.783Z,28.75
2023-04-15T13:32:03.442Z,27.40
2023-04-15T13:35:08.640Z,26.70
2023-04-15T13:38:12.796Z,27.08
2023-04-15T13:41:17.403Z,29.00
2023-04-15T13:44:22.195Z,26.02
2023-04-15T13:47:26.905Z,28.23
2023-04-15T13:50:31.077Z,22.52
2023-04-15T13:53:39.021Z,24.60
2023-04-15T13:56:43.841Z,26.42
2023-04-15T13:59:48.511Z,29.50
2023-04-15T14:02:53.045Z,24.67
2023-04-15T14:05:58.397Z,25.52
2023-04-15T14:09:07.930Z,26.50
2023-04-15T14:12:12.572Z,29.05
2023-04-15T14:15:17.033Z,24.80
2023-04-15T14:18:21.120Z,23.40
2023-04-15T14:21:27.792Z,25.02
2023-04-15T14:24:32.156Z,24.48
2023-04-15T14:27:36.456Z,22.17
2023-04-15T14:30:40.853Z,22.65
2023-04-15T14:33:46.274Z,24.85
2023-04-15T14:36:53.450Z,26.70
2023-04-15T14:39:57.830Z,25.08
2023-04-15T14:43:02.585Z,23.30
2023-04-15T14:46:08.494Z,19.60
2023-04-15T14:49:13.392Z,23.00
2023-04-15T14:52:17.847Z,22.98
2023-04-15T14:55:22.088Z,27.65
2023-04-15T15:01:30.756Z,27.90
2023-04-15T15:04:36.150Z,24.52
2023-04-15T15:07:41.247Z,23.27
2023-04-15T15:10:49.063Z,21.73
2023-04-15T15:13:54.169Z,25.15
2023-04-15T15:16:58.407Z,19.73
2023-04-15T15:20:03.577Z,22.35
2023-04-15T15:23:08.261Z,25.52
2023-04-15T15:26:12.974Z,20.20
2023-04-15T15:29:17.440Z,21.85
2023-04-15T15:32:21.669Z,24.33
2023-04-15T15:38:30.569Z,23.08
2023-04-15T15:41:35.044Z,25.17
2023-04-15T15:44:39.710Z,21.33
2023-04-15T15:47:44.170Z,24.17
2023-04-15T15:50:48.781Z,23.65
2023-04-15T15:53:53.323Z,25.75
2023-04-15T15:56:58.008Z,23.67
2023-04-15T16:03:11.396Z,19.75
2023-04-15T16:06:16.613Z,22.50
2023-04-15T16:09:21.024Z,22.35
2023-04-15T16:12:25.421Z,21.42
2023-04-15T16:15:29.887Z,20.88
2023-04-15T16:18:35.262Z,21.58
2023-04-15T16:21:39.844Z,21.05
2023-04-15T16:24:44.233Z,22.48
2023-04-15T16:28:00.912Z,22.95
2023-04-15T16:31:07.980Z,22.15
2023-04-15T16:34:12.304Z,21.98
2023-04-15T16:37:16.665Z,23.15
2023-04-15T16:40:20.965Z,20.73
2023-04-15T16:43:26.078Z,21.23
2023-04-15T16:46:30.903Z,28.30
2023-04-15T16:49:35.691Z,22.27
2023-04-15T16:52:40.207Z,26.35
2023-04-15T16:55:44.754Z,23.35
2023-04-15T16:58:49.253Z,24.90
2023-04-15T17:01:55.186Z,29.38
2023-04-15T17:04:59.398Z,23.50
2023-04-15T17:08:04.640Z,23.90
2023-04-15T17:11:09.301Z,24.48
2023-04-15T17:14:13.450Z,25.38
2023-04-15T17:17:17.772Z,27.33
2023-04-15T17:20:22.000Z,25.35
2023-04-15T17:23:27.197Z,24.85
2023-04-15T17:26:31.931Z,24.20
2023-04-15T17:29:36.525Z,25.45
2023-04-15T17:32:41.046Z,23.80
2023-04-15T17:35:45.720Z,23.88
2023-04-15T17:38:50.119Z,27.45
2023-04-15T17:41:54.643Z,26.25
2023-04-15T17:44:59.044Z,29.25
2023-04-15T17:48:03.622Z,30.50
2023-04-15T17:51:08.457Z,31.00
2023-04-15T17:57:16.798Z,27.25
2023-04-15T18:00:21.412Z,28.42
2023-04-15T18:03:26.882Z,32.55
2023-04-15T18:06:31.833Z,23.92
2023-04-15T18:09:36.649Z,25.88
2023-04-15T18:12:40.780Z,26.00
2023-04-15T18:15:46.906Z,26.58
2023-04-15T18:18:52.344Z,27.55
2023-04-15T18:21:56.870Z,26.65
2023-04-15T18:25:04.245Z,27.67
2023-04-15T18:28:10.036Z,31.08
2023-04-15T18:31:14.444Z,27.88
2023-04-15T18:34:18.745Z,27.83
2023-04-15T18:37:23.190Z,29.42
2023-04-15T18:40:27.510Z,31.08
2023-04-15T18:43:32.434Z,23.63
2023-04-15T18:46:36.557Z,30.73
2023-04-15T18:49:41.485Z,27.77
2023-04-15T18:52:46.408Z,31.35
2023-04-15T18:55:50.813Z,26.92
2023-04-15T18:59:19.377Z,31.20
2023-04-15T19:02:20.214Z,29.52
2023-04-15T19:05:25.102Z,26.50
2023-04-15T19:08:30.673Z,31.90
2023-04-15T19:11:34.997Z,32.65
2023-04-15T19:14:39.488Z,27.80
2023-04-15T19:17:43.610Z,28.67
2023-04-15T19:20:50.218Z,29.98
2023-04-15T19:23:57.252Z,25.35
2023-04-15T19:27:02.179Z,29.15
2023-04-15T19:30:08.193Z,26.50
2023-04-15T19:33:12.781Z,26.33
2023-04-15T19:36:18.189Z,33.55
2023-04-15T19:39:23.467Z,36.15
2023-04-15T19:42:27.694Z,27.80
2023-04-15T19:45:32.114Z,29.15
2023-04-15T19:48:36.833Z,28.83
2023-04-15T19:51:42.141Z,29.50
2023-04-15T19:54:46.679Z,28.58
2023-04-15T19:57:51.193Z,30.58
2023-04-15T20:00:56.705Z,32.42
2023-04-15T20:04:03.430Z,32.20
2023-04-15T20:07:08.012Z,32.13
2023-04-15T20:10:13.215Z,38.58
2023-04-15T20:13:17.571Z,37.85
2023-04-15T20:16:22.066Z,33.83
2023-04-15T20:19:26.975Z,34.30
2023-04-15T20:22:32.988Z,42.08
2023-04-15T20:25:37.511Z,35.92
2023-04-15T20:28:41.853Z,35.90
2023-04-15T20:31:46.377Z,42.58
2023-04-15T20:34:51.135Z,35.13
2023-04-15T20:37:55.487Z,36.55
2023-04-15T20:40:59.735Z,33.05
2023-04-15T20:44:04.105Z,35.25
2023-04-15T20:47:08.603Z,33.58
2023-04-15T20:50:13.328Z,33.47
2023-04-15T20:53:17.794Z,29.52
2023-04-15T20:56:21.973Z,31.25
2023-04-15T20:59:27.306Z,32.13
2023-04-15T21:02:31.788Z,35.85
2023-04-15T21:05:36.309Z,35.03
2023-04-15T21:08:40.845Z,32.72
2023-04-15T21:14:56.768Z,35.00
2023-04-15T21:18:01.291Z,34.58
2023-04-15T21:21:06.589Z,29.65
2023-04-15T21:24:10.893Z,32.47
2023-04-15T21:27:15.127Z,35.13
2023-04-15T21:30:19.557Z,34.05
2023-04-15T21:33:24.072Z,33.85
2023-04-15T21:36:28.641Z,33.60
2023-04-15T21:39:32.922Z,33.17
2023-04-15T21:42:37.479Z,30.27
2023-04-15T21:45:43.555Z,30.90
2023-04-15T21:49:08.190Z,32.17
2023-04-15T21:52:12.679Z,31.40
2023-04-15T21:55:17.179Z,32.47
2023-04-15T21:58:21.619Z,32.20
2023-04-15T22:01:26.833Z,30.55
2023-04-15T22:04:31.223Z,34.40
2023-04-15T22:07:36.321Z,26.50
2023-04-15T22:10:40.854Z,31.88
2023-04-15T22:13:45.067Z,28.27
2023-04-15T22:16:49.368Z,31.48
2023-04-15T22:19:54.333Z,29.13
2023-04-15T22:22:58.633Z,32.80
2023-04-15T22:26:03.081Z,32.42
2023-04-15T22:29:07.763Z,30.98
2023-04-15T22:32:12.402Z,28.85
2023-04-15T22:35:17.069Z,31.50
2023-04-15T22:38:21.559Z,33.83
2023-04-15T22:44:30.122Z,28.20
2023-04-15T22:47:34.947Z,33.15
2023-04-15T22:50:39.246Z,32.30
2023-04-15T22:56:47.208Z,23.08
2023-04-15T22:59:51.569Z,33.58
2023-04-15T23:02:56.205Z,41.58
2023-04-15T23:06:01.934Z,30.17
2023-04-15T23:09:06.483Z,33.28
2023-04-15T23:12:10.842Z,40.83
2023-04-15T23:15:15.850Z,32.75
2023-04-15T23:18:20.416Z,32.28
2023-04-15T23:21:26.123Z,32.92
2023-04-15T23:24:30.807Z,35.50
2023-04-15T23:27:35.830Z,30.77
2023-04-15T23:30:40.050Z,31.00
2023-04-15T23:33:44.263Z,35.95
2023-04-15T23:36:48.601Z,32.70
2023-04-15T23:39:52.969Z,32.47
2023-04-15T23:42:57.562Z,29.83
2023-04-15T23:46:02.144Z,35.08
2023-04-15T23:49:06.383Z,31.65
2023-04-15T23:52:10.829Z,31.08
2023-04-15T23:55:15.401Z,31.98
2023-04-15T23:58:19.601Z,36.88
